createdAt,value
2022-09-01T00:00:13.490Z,101425.50
2022-09-01T00:02:40.898Z,101425.50
2022-09-01T00:05:08.202Z,101425.50
2022-09-01T00:07:35.860Z,101423.34
2022-09-01T00:10:07.398Z,101420.56
2022-09-01T00:12:34.679Z,101409.84
2022-09-01T00:15:01.834Z,101409.78
2022-09-01T00:17:29.151Z,101414.56
2022-09-01T00:19:55.992Z,101412.50
2022-09-01T00:22:22.958Z,101409.78
2022-09-01T00:24:49.828Z,101408.50
2022-09-01T00:27:17.190Z,101409.41
2022-09-01T00:29:44.865Z,101406.13
2022-09-01T00:32:12.483Z,101402.00
2022-09-01T00:34:42.096Z,101405.50
2022-09-01T00:37:09.000Z,101399.75
2022-09-01T00:39:35.861Z,101395.84
2022-09-01T00:42:02.941Z,101393.22
2022-09-01T00:44:31.286Z,101391.44
2022-09-01T00:46:59.886Z,101400.31
2022-09-01T00:49:35.374Z,101388.38
2022-09-01T00:52:07.627Z,101392.16
2022-09-01T00:54:40.049Z,101398.63
2022-09-01T00:57:09.436Z,101390.44
2022-09-01T00:59:39.520Z,101390.78
2022-09-01T01:02:06.478Z,101389.78
2022-09-01T01:04:33.311Z,101395.38
2022-09-01T01:07:04.090Z,101390.75
2022-09-01T01:09:34.658Z,101390.78
2022-09-01T01:12:03.309Z,101386.78
2022-09-01T01:14:32.001Z,101383.00
2022-09-01T01:17:00.449Z,101377.88
2022-09-01T01:19:58.839Z,101382.81
2022-09-01T01:22:54.289Z,101364.41
2022-09-01T01:25:22.540Z,101374.25
2022-09-01T01:27:50.584Z,101363.59
2022-09-01T01:30:19.107Z,101366.59
2022-09-01T01:32:47.749Z,101364.75
2022-09-01T01:35:16.898Z,101363.19
2022-09-01T01:37:45.888Z,101364.06
2022-09-01T01:40:17.043Z,101364.16
2022-09-01T01:42:49.695Z,101356.22
2022-09-01T01:45:20.352Z,101366.19
2022-09-01T01:47:56.604Z,101363.59
2022-09-01T01:50:33.540Z,101360.03
2022-09-01T01:53:02.952Z,101359.59
2022-09-01T01:55:38.218Z,101360.19
2022-09-01T01:58:05.377Z,101353.19
2022-09-01T02:00:35.152Z,101357.84
2022-09-01T02:03:03.326Z,101355.09
2022-09-01T02:05:33.196Z,101347.31
2022-09-01T02:08:04.753Z,101349.28
2022-09-01T02:10:44.827Z,101349.16
2022-09-01T02:13:16.557Z,101337.53
2022-09-01T02:15:49.520Z,101336.53
2022-09-01T02:18:19.881Z,101344.38
2022-09-01T02:20:49.531Z,101339.94
2022-09-01T02:23:20.236Z,101341.13
2022-09-01T02:26:14.087Z,101336.44
2022-09-01T02:28:37.141Z,101347.47
2022-09-01T02:31:05.336Z,101343.88
2022-09-01T02:33:32.713Z,101333.16
2022-09-01T02:36:02.248Z,101329.56
2022-09-01T02:38:29.878Z,101327.94
2022-09-01T02:41:01.780Z,101325.72
2022-09-01T02:43:29.952Z,101331.53
2022-09-01T02:46:07.559Z,101326.84
2022-09-01T02:48:40.402Z,101322.78
2022-09-01T02:51:10.506Z,101327.63
2022-09-01T02:53:39.545Z,101324.56
2022-09-01T02:56:14.492Z,101329.50
2022-09-01T02:58:46.346Z,101324.75
2022-09-01T03:01:22.178Z,101329.38
2022-09-01T03:03:51.027Z,101316.81
2022-09-01T03:06:19.915Z,101318.75
2022-09-01T03:08:48.205Z,101321.91
2022-09-01T03:11:15.329Z,101308.75
2022-09-01T03:13:43.232Z,101307.50
2022-09-01T03:16:11.095Z,101304.84
2022-09-01T03:18:39.725Z,101298.69
2022-09-01T03:21:08.471Z,101305.25
2022-09-01T03:23:37.105Z,101303.53
2022-09-01T03:26:04.418Z,101310.28
2022-09-01T03:28:32.019Z,101305.25
2022-09-01T03:30:59.943Z,101302.78
2022-09-01T03:33:28.496Z,101305.19
2022-09-01T03:35:57.123Z,101302.69
2022-09-01T03:38:24.862Z,101297.13
2022-09-01T03:41:02.034Z,101298.88
2022-09-01T03:43:36.056Z,101305.25
2022-09-01T03:46:03.957Z,101295.94
2022-09-01T03:48:32.554Z,101294.88
2022-09-01T03:51:03.296Z,101301.31
2022-09-01T03:53:37.065Z,101303.53
2022-09-01T03:56:06.169Z,101304.56
2022-09-01T03:58:33.763Z,101294.22
2022-09-01T04:01:03.061Z,101302.78
2022-09-01T04:03:33.012Z,101297.97
2022-09-01T04:06:02.307Z,101296.13
2022-09-01T04:08:32.813Z,101294.31
2022-09-01T04:11:05.330Z,101285.63
2022-09-01T04:13:37.399Z,101281.19
2022-09-01T04:16:10.907Z,101288.09
2022-09-01T04:18:40.214Z,101286.38
2022-09-01T04:21:08.247Z,101279.06
2022-09-01T04:23:37.225Z,101275.13
2022-09-01T04:26:14.695Z,101274.00
2022-09-01T04:28:47.416Z,101275.28
2022-09-01T04:31:18.717Z,101271.50
2022-09-01T04:33:50.133Z,101269.56
2022-09-01T04:36:23.601Z,101282.34
2022-09-01T04:38:56.533Z,101277.53
2022-09-01T04:41:31.977Z,101281.50
2022-09-01T04:44:04.832Z,101280.25
2022-09-01T04:46:40.882Z,101277.19
2022-09-01T04:49:13.214Z,101275.78
2022-09-01T04:51:41.842Z,101271.75
2022-09-01T04:54:14.556Z,101274.59
2022-09-01T04:56:49.612Z,101274.66
2022-09-01T04:59:20.427Z,101283.44
2022-09-01T05:01:54.927Z,101278.78
2022-09-01T05:04:27.546Z,101270.44
2022-09-01T05:07:01.212Z,101271.81
2022-09-01T05:09:37.941Z,101269.66
2022-09-01T05:12:27.679Z,101264.94
2022-09-01T05:14:56.067Z,101265.84
2022-09-01T05:17:23.393Z,101264.81
2022-09-01T05:19:51.045Z,101258.28
2022-09-01T05:22:22.379Z,101265.13
2022-09-01T05:25:13.529Z,101270.97
2022-09-01T05:27:49.834Z,101271.50
2022-09-01T05:30:19.513Z,101267.66
2022-09-01T05:32:49.157Z,101271.72
2022-09-01T05:35:17.636Z,101269.69
2022-09-01T05:37:44.941Z,101270.69
2022-09-01T05:40:16.353Z,101265.56
2022-09-01T05:42:45.803Z,101269.59
2022-09-01T05:45:14.306Z,101277.78
2022-09-01T05:47:42.161Z,101276.19
2022-09-01T05:50:14.252Z,101277.22
2022-09-01T05:52:44.568Z,101279.91
2022-09-01T05:55:11.802Z,101282.28
2022-09-01T05:57:42.084Z,101281.25
2022-09-01T06:00:14.467Z,101277.31
2022-09-01T06:02:42.936Z,101275.66
2022-09-01T06:05:15.930Z,101281.56
2022-09-01T06:07:44.402Z,101283.41
2022-09-01T06:10:14.724Z,101282.84
2022-09-01T06:12:43.264Z,101284.03
2022-09-01T06:15:16.274Z,101278.22
2022-09-01T06:17:49.089Z,101277.66
2022-09-01T06:20:18.942Z,101287.34
2022-09-01T06:22:47.613Z,101282.88
2022-09-01T06:25:18.643Z,101285.50
2022-09-01T06:27:48.336Z,101274.97
2022-09-01T06:30:24.448Z,101285.31
2022-09-01T06:32:57.978Z,101286.41
2022-09-01T06:35:29.558Z,101284.63
2022-09-01T06:37:58.496Z,101282.88
2022-09-01T06:40:41.594Z,101283.06
2022-09-01T06:43:12.162Z,101283.22
2022-09-01T06:45:49.850Z,101273.38
2022-09-01T06:48:18.484Z,101268.25
2022-09-01T06:53:35.734Z,101277.66
2022-09-01T06:56:06.252Z,101265.78
2022-09-01T06:58:35.060Z,101272.78
2022-09-01T07:01:14.642Z,101266.53
2022-09-01T07:03:43.847Z,101268.28
2022-09-01T07:09:22.150Z,101267.50
2022-09-01T07:12:25.903Z,101264.41
2022-09-01T07:17:50.117Z,101265.84
2022-09-01T07:20:23.897Z,101268.31
2022-09-01T07:23:08.145Z,101265.91
2022-09-01T07:26:01.347Z,101261.63
2022-09-01T07:28:37.046Z,101266.84
2022-09-01T07:33:55.696Z,101269.06
2022-09-01T07:46:36.602Z,101272.69
2022-09-01T07:49:02.695Z,101272.06
2022-09-01T07:51:42.126Z,101272.28
2022-09-01T07:54:09.264Z,101277.69
2022-09-01T07:59:27.978Z,101279.38
2022-09-01T08:02:12.309Z,101275.63
2022-09-01T08:04:41.267Z,101271.09
2022-09-01T08:07:15.354Z,101271.50
2022-09-01T08:09:44.639Z,101279.56
2022-09-01T08:12:12.999Z,101266.13
2022-09-01T08:14:46.748Z,101277.09
2022-09-01T08:17:18.130Z,101268.59
2022-09-01T08:20:08.568Z,101261.94
2022-09-01T08:22:55.363Z,101257.97
2022-09-01T08:25:33.708Z,101260.69
2022-09-01T08:28:02.014Z,101269.75
2022-09-01T08:30:30.125Z,101265.81
2022-09-01T08:32:58.069Z,101261.88
2022-09-01T08:35:24.964Z,101260.59
2022-09-01T08:37:54.171Z,101251.69
2022-09-01T08:40:23.662Z,101268.19
2022-09-01T08:43:20.303Z,101255.91
2022-09-01T08:45:56.038Z,101245.03
2022-09-01T08:49:24.087Z,101253.13
2022-09-01T08:51:50.070Z,101258.72
2022-09-01T08:54:29.989Z,101250.41
2022-09-01T08:57:14.680Z,101256.41
2022-09-01T09:00:20.138Z,101249.97
2022-09-01T09:03:07.739Z,101252.00
2022-09-01T09:06:12.924Z,101251.31
2022-09-01T09:08:58.559Z,101254.97
2022-09-01T09:11:34.449Z,101256.16
2022-09-01T09:14:07.279Z,101248.81
2022-09-01T09:17:04.444Z,101250.22
2022-09-01T09:19:32.235Z,101247.38
2022-09-01T09:22:02.461Z,101247.81
2022-09-01T09:24:48.503Z,101244.38
2022-09-01T09:27:26.878Z,101243.94
2022-09-01T09:30:09.206Z,101241.00
2022-09-01T09:35:50.902Z,101242.56
2022-09-01T09:38:24.380Z,101238.59
2022-09-01T09:41:16.475Z,101235.81
2022-09-01T09:44:03.332Z,101223.06
2022-09-01T09:46:43.668Z,101224.34
2022-09-01T09:49:36.373Z,101222.91
2022-09-01T09:52:10.653Z,101212.69
2022-09-01T09:55:05.173Z,101224.56
2022-09-01T09:57:32.872Z,101216.19
2022-09-01T10:00:08.980Z,101217.06
2022-09-01T10:02:44.080Z,101218.03
2022-09-01T10:05:40.364Z,101211.00
2022-09-01T10:08:11.731Z,101210.41
2022-09-01T10:10:57.269Z,101212.31
2022-09-01T10:13:25.945Z,101206.31
2022-09-01T10:15:57.226Z,101209.84
2022-09-01T10:18:30.315Z,101211.03
2022-09-01T10:21:15.992Z,101199.16
2022-09-01T10:23:43.451Z,101210.31
2022-09-01T10:26:19.149Z,101191.69
2022-09-01T10:29:22.613Z,101198.66
2022-09-01T10:31:49.455Z,101193.25
2022-09-01T10:34:19.438Z,101193.13
2022-09-01T10:36:55.860Z,101194.19
2022-09-01T10:39:27.709Z,101186.41
2022-09-01T10:42:08.313Z,101178.38
2022-09-01T10:44:58.350Z,101174.66
2022-09-01T10:47:30.166Z,101175.06
2022-09-01T10:50:00.128Z,101170.34
2022-09-01T10:52:44.001Z,101161.41
2022-09-01T10:55:26.417Z,101166.56
2022-09-01T11:01:41.110Z,101155.50
2022-09-01T11:03:54.331Z,101156.81
2022-09-01T11:07:11.554Z,101159.47
2022-09-01T11:09:38.463Z,101164.22
2022-09-01T11:12:28.815Z,101159.56
2022-09-01T11:15:35.494Z,101163.56
2022-09-01T11:18:03.634Z,101154.38
2022-09-01T11:20:36.871Z,101154.66
2022-09-01T11:23:14.775Z,101141.63
2022-09-01T11:26:19.075Z,101154.53
2022-09-01T11:28:38.764Z,101140.31
2022-09-01T11:31:06.479Z,101145.34
2022-09-01T11:33:52.257Z,101143.41
2022-09-01T11:36:30.892Z,101144.19
2022-09-01T11:39:08.744Z,101144.75
2022-09-01T11:41:58.550Z,101146.88
2022-09-01T11:44:54.017Z,101137.09
2022-09-01T11:47:27.978Z,101134.34
2022-09-01T11:50:01.057Z,101131.66
2022-09-01T11:52:34.321Z,101136.53
2022-09-01T11:55:01.596Z,101131.44
2022-09-01T11:57:37.043Z,101130.88
2022-09-01T12:00:11.139Z,101137.91
2022-09-01T12:02:51.385Z,101131.38
2022-09-01T12:05:31.462Z,101133.34
2022-09-01T12:07:59.637Z,101128.81
2022-09-01T12:10:33.696Z,101123.16
2022-09-01T12:13:19.536Z,101120.53
2022-09-01T12:16:17.459Z,101117.34
2022-09-01T12:18:48.251Z,101111.03
2022-09-01T12:21:34.803Z,101105.63
2022-09-01T12:24:15.473Z,101104.03
2022-09-01T12:26:43.296Z,101108.72
2022-09-01T12:29:11.428Z,101098.06
2022-09-01T12:31:41.387Z,101104.88
2022-09-01T12:34:24.962Z,101099.16
2022-09-01T12:37:08.355Z,101095.78
2022-09-01T12:39:48.009Z,101096.41
2022-09-01T12:42:27.535Z,101093.13
2022-09-01T12:44:57.471Z,101091.41
2022-09-01T12:47:36.337Z,101085.06
2022-09-01T12:50:05.820Z,101087.84
2022-09-01T12:52:40.152Z,101086.13
2022-09-01T12:55:07.101Z,101080.81
2022-09-01T12:57:36.753Z,101082.94
2022-09-01T13:00:19.917Z,101086.56
2022-09-01T13:02:53.329Z,101078.00
2022-09-01T13:05:41.712Z,101086.59
2022-09-01T13:08:13.938Z,101075.69
2022-09-01T13:10:49.735Z,101077.88
2022-09-01T13:13:17.524Z,101070.69
2022-09-01T13:15:50.381Z,101068.63
2022-09-01T13:18:19.269Z,101069.88
2022-09-01T13:20:46.339Z,101069.13
2022-09-01T13:23:13.361Z,101060.66
2022-09-01T13:25:41.608Z,101070.50
2022-09-01T13:28:08.958Z,101057.88
2022-09-01T13:30:35.833Z,101060.97
2022-09-01T13:33:19.215Z,101054.91
2022-09-01T13:35:46.635Z,101050.44
2022-09-01T13:38:16.294Z,101058.97
2022-09-01T13:40:45.567Z,101045.25
2022-09-01T13:43:14.112Z,101048.47
2022-09-01T13:45:42.300Z,101060.88
2022-09-01T13:48:16.625Z,101053.09
2022-09-01T13:53:32.671Z,101048.72
2022-09-01T13:55:59.502Z,101050.41
2022-09-01T13:58:26.323Z,101036.81
2022-09-01T14:00:53.227Z,101033.56
2022-09-01T14:03:22.662Z,101024.41
2022-09-01T14:05:49.849Z,101027.59
2022-09-01T14:08:19.745Z,101030.31
2022-09-01T14:10:51.045Z,101026.28
2022-09-01T14:13:20.253Z,101022.25
2022-09-01T14:15:48.346Z,101022.50
2022-09-01T14:18:16.313Z,101024.56
2022-09-01T14:20:46.039Z,101020.38
2022-09-01T14:23:15.038Z,101019.09
2022-09-01T14:25:44.966Z,101021.03
2022-09-01T14:28:13.266Z,101017.63
2022-09-01T14:30:42.836Z,101023.66
2022-09-01T14:33:10.952Z,101024.22
2022-09-01T14:35:42.980Z,101023.16
2022-09-01T14:38:10.383Z,101015.81
2022-09-01T14:40:38.786Z,101013.84
2022-09-01T14:43:09.898Z,101012.16
2022-09-01T14:45:37.816Z,101012.25
2022-09-01T14:48:05.574Z,101005.97
2022-09-01T14:50:34.156Z,101000.63
2022-09-01T14:53:02.759Z,100996.63
2022-09-01T14:55:30.637Z,100993.13
2022-09-01T14:57:57.696Z,100993.78
2022-09-01T15:00:27.951Z,100988.63
2022-09-01T15:02:55.627Z,100988.88
2022-09-01T15:05:23.249Z,100984.50
2022-09-01T15:07:50.936Z,100976.41
2022-09-01T15:10:25.359Z,100983.41
2022-09-01T15:12:57.286Z,100986.16
2022-09-01T15:15:25.485Z,100985.69
2022-09-01T15:17:52.717Z,100983.59
2022-09-01T15:20:38.099Z,100976.13
2022-09-01T15:23:05.503Z,100981.31
2022-09-01T15:25:32.490Z,100972.41
2022-09-01T15:28:00.329Z,100972.41
2022-09-01T15:30:28.126Z,100970.44
2022-09-01T15:32:55.388Z,100960.53
2022-09-01T15:35:23.068Z,100964.44
2022-09-01T15:37:51.571Z,100949.97
2022-09-01T15:40:19.587Z,100957.22
2022-09-01T15:42:46.744Z,100954.78
2022-09-01T15:45:19.684Z,100949.31
2022-09-01T15:47:48.400Z,100941.16
2022-09-01T15:50:21.398Z,100945.41
2022-09-01T15:52:55.873Z,100944.28
2022-09-01T15:55:28.602Z,100947.81
2022-09-01T15:57:55.937Z,100944.09
2022-09-01T16:00:25.497Z,100945.72
2022-09-01T16:02:54.529Z,100944.06
2022-09-01T16:05:21.554Z,100942.66
2022-09-01T16:07:50.227Z,100937.91
2022-09-01T16:10:17.089Z,100929.50
2022-09-01T16:12:44.776Z,100927.19
2022-09-01T16:15:15.695Z,100927.88
2022-09-01T16:18:21.390Z,100925.28
2022-09-01T16:21:10.088Z,100924.13
2022-09-01T16:23:44.050Z,100921.16
2022-09-01T16:26:12.165Z,100921.31
2022-09-01T16:28:39.640Z,100907.88
2022-09-01T16:31:21.190Z,100917.16
2022-09-01T16:33:51.568Z,100917.13
2022-09-01T16:36:34.767Z,100921.19
2022-09-01T16:39:11.531Z,100916.81
2022-09-01T16:42:04.111Z,100924.16
2022-09-01T16:45:17.241Z,100917.78
2022-09-01T16:47:49.123Z,100918.13
2022-09-01T16:50:38.707Z,100919.25
2022-09-01T16:53:30.682Z,100913.25
2022-09-01T16:56:09.279Z,100919.16
2022-09-01T16:58:54.538Z,100917.38
2022-09-01T17:02:11.217Z,100921.03
2022-09-01T17:04:48.017Z,100917.38
2022-09-01T17:07:14.935Z,100909.50
2022-09-01T17:09:49.852Z,100921.56
2022-09-01T17:12:33.300Z,100922.06
2022-09-01T17:15:31.677Z,100913.03
2022-09-01T17:18:21.989Z,100915.44
2022-09-01T17:21:02.337Z,100909.56
2022-09-01T17:23:35.633Z,100906.25
2022-09-01T17:26:15.001Z,100906.63
2022-09-01T17:29:11.999Z,100901.97
2022-09-01T17:32:30.978Z,100901.78
2022-09-01T17:35:23.630Z,100897.16
2022-09-01T17:38:09.017Z,100896.06
2022-09-01T17:40:50.766Z,100898.81
2022-09-01T17:43:29.419Z,100897.06
2022-09-01T17:46:13.530Z,100894.09
2022-09-01T17:48:43.311Z,100895.91
2022-09-01T17:51:26.022Z,100909.47
2022-09-01T17:54:17.321Z,100903.97
2022-09-01T17:56:49.980Z,100913.50
2022-09-01T17:59:54.647Z,100909.56
2022-09-01T18:02:24.753Z,100913.72
2022-09-01T18:04:55.995Z,100907.91
2022-09-01T18:07:41.374Z,100904.59
2022-09-01T18:10:14.077Z,100902.38
2022-09-01T18:12:43.263Z,100902.56
2022-09-01T18:15:29.352Z,100898.94
2022-09-01T18:18:14.564Z,100896.88
2022-09-01T18:20:46.466Z,100907.50
2022-09-01T18:23:19.380Z,100906.13
2022-09-01T18:25:49.936Z,100902.25
2022-09-01T18:28:17.131Z,100900.22
2022-09-01T18:30:59.323Z,100905.34
2022-09-01T18:33:29.815Z,100897.00
2022-09-01T18:36:03.924Z,100904.25
2022-09-01T18:38:43.441Z,100899.63
2022-09-01T18:41:28.699Z,100901.22
2022-09-01T18:44:14.317Z,100903.00
2022-09-01T18:46:54.975Z,100898.63
2022-09-01T18:49:29.129Z,100892.16
2022-09-01T18:52:31.214Z,100899.59
2022-09-01T18:55:19.822Z,100900.75
2022-09-01T18:57:52.574Z,100898.53
2022-09-01T19:00:21.390Z,100904.03
2022-09-01T19:02:53.580Z,100902.06
2022-09-01T19:05:29.031Z,100902.56
2022-09-01T19:08:08.372Z,100905.84
2022-09-01T19:10:52.833Z,100899.50
2022-09-01T19:13:44.853Z,100905.50
2022-09-01T19:16:32.447Z,100909.59
2022-09-01T19:19:17.279Z,100912.19
2022-09-01T19:21:44.750Z,100905.53
2022-09-01T19:24:26.607Z,100900.06
2022-09-01T19:27:21.919Z,100906.34
2022-09-01T19:29:53.657Z,100901.75
2022-09-01T19:32:23.003Z,100900.03
2022-09-01T19:34:59.988Z,100908.63
2022-09-01T19:37:26.866Z,100903.72
2022-09-01T19:39:54.620Z,100904.78
2022-09-01T19:43:11.452Z,100901.09
2022-09-01T19:45:47.275Z,100903.31
2022-09-01T19:48:25.213Z,100899.63
2022-09-01T19:50:59.277Z,100898.47
2022-09-01T19:53:45.504Z,100896.41
2022-09-01T19:56:35.499Z,100897.47
2022-09-01T19:59:27.681Z,100894.19
2022-09-01T20:02:04.535Z,100900.38
2022-09-01T20:04:41.289Z,100890.34
2022-09-01T20:07:51.185Z,100888.16
2022-09-01T20:10:37.952Z,100888.09
2022-09-01T20:13:10.782Z,100893.38
2022-09-01T20:15:55.116Z,100894.50
2022-09-01T20:18:31.121Z,100897.47
2022-09-01T20:21:04.850Z,100896.88
2022-09-01T20:24:00.171Z,100890.31
2022-09-01T20:26:32.820Z,100889.97
2022-09-01T20:29:09.132Z,100884.00
2022-09-01T20:31:48.967Z,100888.28
2022-09-01T20:34:15.756Z,100878.50
2022-09-01T20:36:49.749Z,100885.59
2022-09-01T20:39:40.014Z,100879.97
2022-09-01T20:42:13.368Z,100874.09
2022-09-01T20:44:45.140Z,100877.72
2022-09-01T20:47:12.546Z,100864.56
2022-09-01T20:49:40.310Z,100873.03
2022-09-01T20:52:13.012Z,100870.50
2022-09-01T20:55:12.076Z,100871.84
2022-09-01T20:57:54.387Z,100870.25
2022-09-01T21:00:25.948Z,100865.16
2022-09-01T21:03:19.247Z,100867.66
2022-09-01T21:06:15.697Z,100868.72
2022-09-01T21:09:20.814Z,100869.66
2022-09-01T21:12:02.551Z,100860.66
2022-09-01T21:14:48.557Z,100856.19
2022-09-01T21:17:33.981Z,100863.81
2022-09-01T21:20:22.169Z,100859.22
2022-09-01T21:22:50.355Z,100851.84
2022-09-01T21:25:17.403Z,100849.00
2022-09-01T21:27:52.118Z,100844.44
2022-09-01T21:30:19.818Z,100851.09
2022-09-01T21:32:47.089Z,100852.88
2022-09-01T21:35:17.149Z,100843.13
2022-09-01T21:37:44.094Z,100846.44
2022-09-01T21:40:12.144Z,100839.72
2022-09-01T21:43:01.779Z,100833.16
2022-09-01T21:45:28.904Z,100846.31
2022-09-01T21:47:55.743Z,100835.84
2022-09-01T21:50:25.301Z,100843.34
2022-09-01T21:52:52.224Z,100843.34
2022-09-01T21:55:22.862Z,100845.13
2022-09-01T21:57:51.175Z,100842.44
2022-09-01T22:00:21.922Z,100838.44
2022-09-01T22:02:49.235Z,100837.75
2022-09-01T22:05:16.132Z,100836.31
2022-09-01T22:07:45.489Z,100839.63
2022-09-01T22:10:15.696Z,100833.53
2022-09-01T22:12:45.023Z,100831.66
2022-09-01T22:15:13.773Z,100834.34
2022-09-01T22:17:40.898Z,100837.16
2022-09-01T22:20:09.256Z,100840.66
2022-09-01T22:22:36.236Z,100833.63
2022-09-01T22:25:08.399Z,100834.69
2022-09-01T22:27:35.428Z,100834.94
2022-09-01T22:30:04.333Z,100831.66
2022-09-01T22:32:33.158Z,100825.75
2022-09-01T22:35:02.603Z,100823.19
2022-09-01T22:37:29.544Z,100818.81
2022-09-01T22:39:56.310Z,100825.78
2022-09-01T22:42:23.110Z,100819.19
2022-09-01T22:44:49.972Z,100816.69
2022-09-01T22:47:16.863Z,100810.75
2022-09-01T22:49:43.868Z,100803.56
2022-09-01T22:52:10.749Z,100802.72
2022-09-01T22:54:41.096Z,100798.88
2022-09-01T22:57:08.034Z,100804.84
2022-09-01T22:59:35.001Z,100807.22
2022-09-01T23:02:02.029Z,100811.09
2022-09-01T23:04:30.992Z,100816.50
2022-09-01T23:06:58.184Z,100804.84
2022-09-01T23:09:25.062Z,100797.00
2022-09-01T23:11:51.933Z,100800.13
2022-09-01T23:14:18.849Z,100795.56
2022-09-01T23:16:47.133Z,100793.47
2022-09-01T23:19:19.613Z,100786.91
2022-09-01T23:21:47.890Z,100786.34
2022-09-01T23:24:15.283Z,100782.44
2022-09-01T23:26:42.226Z,100783.38
2022-09-01T23:29:09.611Z,100774.00
2022-09-01T23:31:38.265Z,100776.09
2022-09-01T23:34:07.216Z,100781.63
2022-09-01T23:36:35.104Z,100766.13
2022-09-01T23:39:04.447Z,100760.47
2022-09-01T23:41:33.971Z,100764.97
2022-09-01T23:44:04.077Z,100757.78
2022-09-01T23:46:34.387Z,100765.28
2022-09-01T23:49:02.068Z,100754.25
2022-09-01T23:51:30.020Z,100753.09
2022-09-01T23:53:56.994Z,100746.16
2022-09-01T23:56:26.048Z,100756.81
2022-09-01T23:58:53.020Z,100757.28
